LGST Airport Information

Runway Information
Runway 05 Length 6804 ft width 148 ft
Elevation 376 ft Threshold 0 ft Heading 51
Runway 23 Length 6804 ft Width 148 ft
Elevation 316 ft Threshold 0 ft Heading 231
Airport Frequencies
Type A/G Name RDO Frequency 563.7 MHZ
Type AFIS Name INFO Frequency 122.6 MHZ
Airport Navaids
Type VOR-DME Name Sitia Frequency 112900 KHZ
Type VOR-DME Name Sitia Frequency 113300 KHZ
Airport Weather Information & NOTAM
ADDS - METARS form results

(1905 UTC 17 February 2019)
Data provider http://aviationweather.gov/metar/data/
 
Forecast for: LGST (SITIA AIRPORT , GR)
Text: TAF LGST 171700Z 1718/1803 34017KT 9999 SCT020
Forecast period: 1800 UTC 17 February 2019 to 0300 UTC 18 February 2019
Forecast type: FROM: standard forecast or significant change
Winds: from the NNW (340 degrees) at 20 MPH (17 knots; 8.7 m/s)
Visibility: 6 or more miles 10+ km)
Ceiling: at least 12,000 feet AGL
Clouds: scattered clouds at 2000 feet AGL
Weather: no significant weather forecast for this period
Text: PROB40
Forecast period: 1800 to 2200 UTC 17 February 2019
Forecast type: TEMPORARY: The following changes expected for less than half the time period
Visibility: 3 miles (5 km)
Ceiling: 2000 feet AGL
Clouds: scattered clouds at 1000 feet AGL
few clouds at 1600 feet AGL
broken clouds at 2000 feet AGL
Weather: RA  (moderate rain)